WZZ52 LHBP-LEMD
Flight info
| Callsign | WZZ52 |
|---|---|
| Flight time | 2h 58m |
| Altitude | 38000 |
| Route | GILEP DCT ZOLKU DCT SUNIS DCT RADLY/N0446F370 DCT LAGEN/N0449F390 DCT GEKBA DCT VAMTU DCT KOLON DCT GANGU DCT PADKO DCT DIVKO DCT NILDU DCT NENDA DCT BCN DCT ANTON DCT XIKEN DCT OSLAP DCT SALAS DCT RAMON DCT NEXAS DCT DISVU DCT ADUXO |
| Aircraft | A320/M-SDE1E2E3FGIJ1J4RWXY/LB1 |
Departure
| Time | 2026-05-07 08:56 |
|---|---|
| Airport | Budapest Liszt Ferenc International Airport (LHBP) |
Arrival
| Time | 2026-05-07 11:54 |
|---|---|
| Airport | Adolfo Suárez Madrid–Barajas Airport (LEMD) |
| Time | Latitude | Longitude | Altitude | Speed | Heading |
|---|---|---|---|---|---|
| 2026-05-07 08:26 | 47.43546 | 19.26013 | 457 ft | 0 kts | 312° |
| 2026-05-07 08:51 | 47.43549 | 19.26008 | 457 ft | 3 kts | 312° |
| 2026-05-07 08:51 | 47.43570 | 19.25969 | 456 ft | 6 kts | 296° |
| 2026-05-07 08:51 | 47.43551 | 19.25908 | 456 ft | 8 kts | 224° |
| 2026-05-07 08:51 | 47.43505 | 19.25846 | 457 ft | 7 kts | 222° |
| 2026-05-07 08:52 | 47.43506 | 19.25779 | 455 ft | 8 kts | 304° |
| 2026-05-07 08:52 | 47.43545 | 19.25703 | 457 ft | 10 kts | 290° |
| 2026-05-07 08:52 | 47.43508 | 19.25608 | 457 ft | 13 kts | 223° |
| 2026-05-07 08:52 | 47.43437 | 19.25512 | 456 ft | 15 kts | 222° |
| 2026-05-07 08:53 | 47.43353 | 19.25399 | 456 ft | 17 kts | 222° |
| 2026-05-07 08:53 | 47.43262 | 19.25278 | 457 ft | 17 kts | 222° |
| 2026-05-07 08:53 | 47.43180 | 19.25168 | 457 ft | 11 kts | 222° |
| 2026-05-07 08:53 | 47.43146 | 19.25121 | 457 ft | 0 kts | 222° |
| 2026-05-07 08:54 | 47.43144 | 19.25120 | 457 ft | 2 kts | 222° |
| 2026-05-07 08:54 | 47.43119 | 19.25086 | 457 ft | 8 kts | 222° |
| 2026-05-07 08:54 | 47.43074 | 19.25018 | 457 ft | 8 kts | 243° |
| 2026-05-07 08:55 | 47.43093 | 19.24953 | 456 ft | 7 kts | 311° |
| 2026-05-07 08:55 | 47.43205 | 19.24770 | 456 ft | 57 kts | 312° |
| 2026-05-07 08:55 | 47.43637 | 19.24074 | 453 ft | 122 kts | 312° |
| 2026-05-07 08:55 | 47.44319 | 19.22957 | 472 ft | 166 kts | 310° |
| 2026-05-07 08:56 | 47.45092 | 19.21723 | 1203 ft | 159 kts | 309° |
| 2026-05-07 08:56 | 47.45838 | 19.20571 | 1960 ft | 153 kts | 309° |
| 2026-05-07 08:56 | 47.46603 | 19.19352 | 2297 ft | 171 kts | 307° |
| 2026-05-07 08:56 | 47.47445 | 19.17953 | 2615 ft | 192 kts | 308° |
| 2026-05-07 08:57 | 47.48354 | 19.16354 | 2917 ft | 213 kts | 300° |
| 2026-05-07 08:57 | 47.48999 | 19.14323 | 3298 ft | 231 kts | 284° |
| 2026-05-07 08:57 | 47.49192 | 19.11869 | 3850 ft | 248 kts | 264° |
| 2026-05-07 08:57 | 47.48797 | 19.09381 | 4739 ft | 252 kts | 246° |
| 2026-05-07 08:58 | 47.47830 | 19.07202 | 5660 ft | 256 kts | 226° |
| 2026-05-07 08:58 | 47.46377 | 19.05660 | 6604 ft | 261 kts | 206° |
| 2026-05-07 08:58 | 47.44642 | 19.04776 | 7505 ft | 265 kts | 199° |
| 2026-05-07 08:58 | 47.42866 | 19.03948 | 8462 ft | 269 kts | 199° |
| 2026-05-07 08:59 | 47.41070 | 19.03109 | 9458 ft | 273 kts | 199° |
| 2026-05-07 08:59 | 47.39244 | 19.02251 | 10337 ft | 281 kts | 200° |
| 2026-05-07 08:59 | 47.37315 | 19.01228 | 10903 ft | 305 kts | 203° |
| 2026-05-07 08:59 | 47.35315 | 19.00006 | 11624 ft | 316 kts | 205° |
| 2026-05-07 09:00 | 47.33306 | 18.98634 | 12449 ft | 320 kts | 210° |
| 2026-05-07 09:00 | 47.31619 | 18.96500 | 13201 ft | 324 kts | 233° |
| 2026-05-07 09:00 | 47.30664 | 18.93479 | 13952 ft | 331 kts | 255° |
| 2026-05-07 09:00 | 47.30612 | 18.90055 | 14622 ft | 341 kts | 278° |
| 2026-05-07 09:01 | 47.31475 | 18.86806 | 15276 ft | 350 kts | 294° |
| 2026-05-07 09:01 | 47.32630 | 18.83628 | 15914 ft | 353 kts | 295° |
| 2026-05-07 09:01 | 47.33808 | 18.80420 | 16549 ft | 356 kts | 295° |
| 2026-05-07 09:01 | 47.34997 | 18.77194 | 17180 ft | 360 kts | 295° |
| 2026-05-07 09:02 | 47.36200 | 18.73930 | 17815 ft | 363 kts | 294° |
| 2026-05-07 09:02 | 47.37410 | 18.70633 | 18414 ft | 367 kts | 294° |
| 2026-05-07 09:02 | 47.38628 | 18.67294 | 18958 ft | 370 kts | 294° |
| 2026-05-07 09:02 | 47.39852 | 18.63923 | 19519 ft | 374 kts | 294° |
| 2026-05-07 09:03 | 47.41064 | 18.60565 | 20071 ft | 377 kts | 292° |
| 2026-05-07 09:03 | 47.42031 | 18.56971 | 20594 ft | 375 kts | 282° |
| 2026-05-07 09:03 | 47.42784 | 18.53254 | 21112 ft | 379 kts | 282° |
| 2026-05-07 09:03 | 47.43546 | 18.49507 | 21628 ft | 382 kts | 282° |
| 2026-05-07 09:04 | 47.44313 | 18.45727 | 22120 ft | 385 kts | 282° |
| 2026-05-07 09:04 | 47.45090 | 18.41905 | 22608 ft | 389 kts | 282° |
| 2026-05-07 09:04 | 47.45865 | 18.38098 | 23103 ft | 393 kts | 282° |
| 2026-05-07 09:04 | 47.46664 | 18.34162 | 23588 ft | 396 kts | 282° |
| 2026-05-07 09:05 | 47.47449 | 18.30289 | 24013 ft | 399 kts | 282° |
| 2026-05-07 09:05 | 47.48248 | 18.26347 | 24477 ft | 400 kts | 282° |
| 2026-05-07 09:05 | 47.49007 | 18.22378 | 24947 ft | 401 kts | 280° |
| 2026-05-07 09:05 | 47.49697 | 18.18371 | 25407 ft | 402 kts | 279° |
| 2026-05-07 09:06 | 47.50344 | 18.14346 | 25884 ft | 403 kts | 278° |
| 2026-05-07 09:06 | 47.50977 | 18.10300 | 26331 ft | 404 kts | 278° |
| 2026-05-07 09:06 | 47.51611 | 18.06240 | 26781 ft | 406 kts | 278° |
| 2026-05-07 09:06 | 47.52256 | 18.02162 | 27218 ft | 408 kts | 278° |
| 2026-05-07 09:07 | 47.52915 | 17.98070 | 27640 ft | 410 kts | 278° |
| 2026-05-07 09:07 | 47.53585 | 17.93952 | 28075 ft | 412 kts | 278° |
| 2026-05-07 09:07 | 47.54260 | 17.89815 | 28489 ft | 414 kts | 278° |
| 2026-05-07 09:07 | 47.54812 | 17.85691 | 28891 ft | 412 kts | 271° |
| 2026-05-07 09:08 | 47.54906 | 17.81428 | 29298 ft | 408 kts | 262° |
| 2026-05-07 09:08 | 47.54518 | 17.77335 | 29691 ft | 405 kts | 253° |
| 2026-05-07 09:08 | 47.53664 | 17.73361 | 30091 ft | 403 kts | 244° |
| 2026-05-07 09:08 | 47.52584 | 17.69501 | 30441 ft | 405 kts | 244° |
| 2026-05-07 09:09 | 47.51507 | 17.65641 | 30825 ft | 406 kts | 244° |
| 2026-05-07 09:09 | 47.50446 | 17.61826 | 31208 ft | 406 kts | 244° |
| 2026-05-07 09:09 | 47.49365 | 17.57943 | 31679 ft | 405 kts | 244° |
| 2026-05-07 09:09 | 47.48301 | 17.54105 | 32265 ft | 401 kts | 244° |
| 2026-05-07 09:10 | 47.47243 | 17.50310 | 32872 ft | 397 kts | 244° |
| 2026-05-07 09:10 | 47.46194 | 17.46550 | 33515 ft | 393 kts | 244° |
| 2026-05-07 09:10 | 47.45151 | 17.42819 | 34185 ft | 390 kts | 244° |
| 2026-05-07 09:10 | 47.44129 | 17.39178 | 34693 ft | 388 kts | 244° |
| 2026-05-07 09:11 | 47.43090 | 17.35480 | 35137 ft | 389 kts | 244° |
| 2026-05-07 09:11 | 47.42048 | 17.31786 | 35503 ft | 390 kts | 244° |
| 2026-05-07 09:11 | 47.40999 | 17.28078 | 35791 ft | 391 kts | 244° |
| 2026-05-07 09:11 | 47.39945 | 17.24360 | 36075 ft | 392 kts | 244° |
| 2026-05-07 09:12 | 47.38886 | 17.20637 | 36349 ft | 393 kts | 244° |
| 2026-05-07 09:12 | 47.37824 | 17.16903 | 36628 ft | 394 kts | 244° |
| 2026-05-07 09:12 | 47.36775 | 17.13210 | 36905 ft | 395 kts | 244° |
| 2026-05-07 09:12 | 47.35710 | 17.09459 | 37179 ft | 396 kts | 245° |
| 2026-05-07 09:13 | 47.34641 | 17.05693 | 37443 ft | 397 kts | 245° |
| 2026-05-07 09:13 | 47.33569 | 17.01929 | 37704 ft | 398 kts | 245° |
| 2026-05-07 09:13 | 47.32490 | 16.98151 | 37924 ft | 399 kts | 245° |
| 2026-05-07 09:13 | 47.31424 | 16.94416 | 37977 ft | 401 kts | 245° |
| 2026-05-07 09:14 | 47.29247 | 16.86829 | 37975 ft | 401 kts | 245° |
| 2026-05-07 09:14 | 47.27071 | 16.79293 | 37983 ft | 401 kts | 245° |
| 2026-05-07 09:15 | 47.24885 | 16.71724 | 37981 ft | 401 kts | 245° |
| 2026-05-07 09:15 | 47.22705 | 16.64201 | 37978 ft | 401 kts | 245° |
| 2026-05-07 09:16 | 47.20517 | 16.56647 | 37987 ft | 401 kts | 245° |
| 2026-05-07 09:16 | 47.18323 | 16.49101 | 37993 ft | 401 kts | 244° |
| 2026-05-07 09:17 | 47.16110 | 16.41556 | 37999 ft | 401 kts | 244° |
| 2026-05-07 09:17 | 47.13833 | 16.34146 | 37998 ft | 399 kts | 238° |
| 2026-05-07 09:18 | 47.10908 | 16.27224 | 37990 ft | 398 kts | 236° |
| 2026-05-07 09:18 | 47.08453 | 16.21497 | 37991 ft | 398 kts | 236° |
| 2026-05-07 09:19 | 47.05502 | 16.14610 | 38000 ft | 398 kts | 236° |
| 2026-05-07 09:19 | 47.02562 | 16.07740 | 38003 ft | 398 kts | 236° |
| 2026-05-07 09:20 | 46.99609 | 16.00855 | 37988 ft | 398 kts | 236° |
| 2026-05-07 09:20 | 46.96671 | 15.94040 | 37988 ft | 398 kts | 236° |
| 2026-05-07 09:21 | 46.93699 | 15.87183 | 37986 ft | 398 kts | 236° |
| 2026-05-07 09:21 | 46.90732 | 15.80341 | 37990 ft | 398 kts | 236° |
| 2026-05-07 09:22 | 46.87777 | 15.73539 | 37988 ft | 398 kts | 236° |
| 2026-05-07 09:22 | 46.84801 | 15.66682 | 37987 ft | 398 kts | 236° |
| 2026-05-07 09:23 | 46.81820 | 15.59839 | 37986 ft | 399 kts | 236° |
| 2026-05-07 09:23 | 46.78843 | 15.53044 | 37992 ft | 399 kts | 236° |
| 2026-05-07 09:24 | 46.75843 | 15.46209 | 37992 ft | 399 kts | 236° |
| 2026-05-07 09:24 | 46.72842 | 15.39389 | 37998 ft | 399 kts | 236° |
| 2026-05-07 09:25 | 46.69842 | 15.32574 | 37998 ft | 399 kts | 236° |
| 2026-05-07 09:25 | 46.66856 | 15.25814 | 38002 ft | 399 kts | 236° |
| 2026-05-07 09:26 | 46.64071 | 15.18837 | 38005 ft | 400 kts | 244° |
| 2026-05-07 09:26 | 46.61885 | 15.11374 | 37731 ft | 399 kts | 244° |
| 2026-05-07 09:27 | 46.60791 | 15.07654 | 37459 ft | 398 kts | 244° |
| 2026-05-07 09:27 | 46.59696 | 15.03950 | 37195 ft | 397 kts | 244° |
| 2026-05-07 09:27 | 46.57515 | 14.96607 | 36992 ft | 395 kts | 244° |
| 2026-05-07 09:28 | 46.56423 | 14.92945 | 36990 ft | 395 kts | 244° |
| 2026-05-07 09:28 | 46.54243 | 14.85645 | 36990 ft | 396 kts | 244° |
| 2026-05-07 09:29 | 46.52052 | 14.78283 | 36997 ft | 396 kts | 244° |
| 2026-05-07 09:29 | 46.49863 | 14.70958 | 36993 ft | 396 kts | 244° |
| 2026-05-07 09:30 | 46.47652 | 14.63616 | 36995 ft | 397 kts | 244° |
| 2026-05-07 09:30 | 46.45436 | 14.56258 | 36996 ft | 397 kts | 244° |
| 2026-05-07 09:31 | 46.43228 | 14.48952 | 37000 ft | 398 kts | 244° |
| 2026-05-07 09:31 | 46.41004 | 14.41600 | 37000 ft | 398 kts | 244° |
| 2026-05-07 09:32 | 46.38775 | 14.34260 | 37005 ft | 398 kts | 243° |
| 2026-05-07 09:32 | 46.36536 | 14.26921 | 37001 ft | 398 kts | 244° |
| 2026-05-07 09:33 | 46.34293 | 14.19582 | 37001 ft | 398 kts | 244° |
| 2026-05-07 09:33 | 46.32045 | 14.12254 | 37000 ft | 398 kts | 244° |
| 2026-05-07 09:34 | 46.29804 | 14.04965 | 36996 ft | 398 kts | 244° |
| 2026-05-07 09:34 | 46.27547 | 13.97640 | 37003 ft | 398 kts | 244° |
| 2026-05-07 09:35 | 46.25285 | 13.90316 | 37005 ft | 398 kts | 244° |
| 2026-05-07 09:35 | 46.23024 | 13.83021 | 37004 ft | 397 kts | 244° |
| 2026-05-07 09:36 | 46.20761 | 13.75770 | 37004 ft | 398 kts | 243° |
| 2026-05-07 09:36 | 46.18480 | 13.68473 | 37000 ft | 398 kts | 244° |
| 2026-05-07 09:37 | 46.16202 | 13.61173 | 36998 ft | 398 kts | 244° |
| 2026-05-07 09:37 | 46.13918 | 13.53885 | 37004 ft | 398 kts | 243° |
| 2026-05-07 09:38 | 46.11640 | 13.46646 | 37006 ft | 398 kts | 243° |
| 2026-05-07 09:38 | 46.09347 | 13.39374 | 36993 ft | 398 kts | 244° |
| 2026-05-07 09:39 | 46.07065 | 13.32149 | 36988 ft | 398 kts | 243° |
| 2026-05-07 09:39 | 46.04766 | 13.24893 | 36977 ft | 397 kts | 243° |
| 2026-05-07 09:40 | 46.02469 | 13.17660 | 36979 ft | 397 kts | 243° |
| 2026-05-07 09:40 | 46.00157 | 13.10423 | 36978 ft | 397 kts | 243° |
| 2026-05-07 09:41 | 45.97845 | 13.03198 | 36978 ft | 397 kts | 243° |
| 2026-05-07 09:41 | 45.95547 | 12.96026 | 36974 ft | 397 kts | 243° |
| 2026-05-07 09:42 | 45.93216 | 12.88802 | 36977 ft | 397 kts | 243° |
| 2026-05-07 09:42 | 45.90881 | 12.81605 | 36976 ft | 397 kts | 243° |
| 2026-05-07 09:43 | 45.88563 | 12.74444 | 37006 ft | 397 kts | 243° |
| 2026-05-07 09:43 | 45.86239 | 12.67231 | 36995 ft | 397 kts | 243° |
| 2026-05-07 09:44 | 45.83904 | 12.60023 | 37006 ft | 398 kts | 243° |
| 2026-05-07 09:44 | 45.81567 | 12.52869 | 37005 ft | 398 kts | 243° |
| 2026-05-07 09:45 | 45.79208 | 12.45683 | 36995 ft | 398 kts | 243° |
| 2026-05-07 09:45 | 45.76849 | 12.38491 | 37002 ft | 398 kts | 243° |
| 2026-05-07 09:46 | 45.74501 | 12.31350 | 37000 ft | 398 kts | 243° |
| 2026-05-07 09:46 | 45.72134 | 12.24173 | 37006 ft | 398 kts | 243° |
| 2026-05-07 09:47 | 45.69762 | 12.17000 | 36998 ft | 398 kts | 243° |
| 2026-05-07 09:47 | 45.67389 | 12.09834 | 37004 ft | 399 kts | 243° |
| 2026-05-07 09:48 | 45.65009 | 12.02654 | 37005 ft | 399 kts | 243° |
| 2026-05-07 09:48 | 45.62631 | 11.95533 | 36996 ft | 399 kts | 243° |
| 2026-05-07 09:49 | 45.60234 | 11.88375 | 36995 ft | 399 kts | 243° |
| 2026-05-07 09:49 | 45.57827 | 11.81202 | 36996 ft | 399 kts | 243° |
| 2026-05-07 09:50 | 45.55437 | 11.74083 | 36997 ft | 399 kts | 243° |
| 2026-05-07 09:50 | 45.53030 | 11.66937 | 36992 ft | 400 kts | 243° |
| 2026-05-07 09:51 | 45.50614 | 11.59784 | 36995 ft | 400 kts | 243° |
| 2026-05-07 09:51 | 45.48183 | 11.52623 | 37004 ft | 399 kts | 243° |
| 2026-05-07 09:52 | 45.45767 | 11.45529 | 36987 ft | 399 kts | 243° |
| 2026-05-07 09:52 | 45.43337 | 11.38394 | 36998 ft | 400 kts | 243° |
| 2026-05-07 09:53 | 45.40908 | 11.31268 | 37004 ft | 399 kts | 243° |
| 2026-05-07 09:53 | 45.38894 | 11.25378 | 36995 ft | 399 kts | 243° |
| 2026-05-07 09:54 | 45.36460 | 11.18268 | 37015 ft | 400 kts | 243° |
| 2026-05-07 09:54 | 45.34011 | 11.11155 | 37006 ft | 400 kts | 243° |
| 2026-05-07 09:55 | 45.31550 | 11.04050 | 36997 ft | 399 kts | 243° |
| 2026-05-07 09:55 | 45.29101 | 10.96995 | 36996 ft | 400 kts | 243° |
| 2026-05-07 09:56 | 45.26642 | 10.89908 | 36996 ft | 400 kts | 243° |
| 2026-05-07 09:56 | 45.24176 | 10.82819 | 37007 ft | 400 kts | 243° |
| 2026-05-07 09:57 | 45.21713 | 10.75754 | 37005 ft | 400 kts | 243° |
| 2026-05-07 09:57 | 45.19238 | 10.68684 | 37000 ft | 400 kts | 243° |
| 2026-05-07 09:58 | 45.16774 | 10.61664 | 37009 ft | 400 kts | 243° |
| 2026-05-07 09:58 | 45.14296 | 10.54595 | 37007 ft | 399 kts | 243° |
| 2026-05-07 09:59 | 45.11815 | 10.47551 | 37022 ft | 399 kts | 243° |
| 2026-05-07 09:59 | 45.09320 | 10.40512 | 37010 ft | 399 kts | 243° |
| 2026-05-07 10:00 | 45.06828 | 10.33476 | 37008 ft | 399 kts | 243° |
| 2026-05-07 10:00 | 45.04346 | 10.26476 | 37021 ft | 399 kts | 243° |
| 2026-05-07 10:01 | 45.01846 | 10.19465 | 37017 ft | 399 kts | 243° |
| 2026-05-07 10:01 | 44.99335 | 10.12467 | 37005 ft | 399 kts | 243° |
| 2026-05-07 10:02 | 44.96819 | 10.05467 | 37001 ft | 399 kts | 243° |
| 2026-05-07 10:02 | 44.94323 | 9.98516 | 37015 ft | 399 kts | 243° |
| 2026-05-07 10:03 | 44.91810 | 9.91512 | 37006 ft | 399 kts | 243° |
| 2026-05-07 10:03 | 44.89289 | 9.84522 | 37003 ft | 399 kts | 243° |
| 2026-05-07 10:04 | 44.86767 | 9.77534 | 37001 ft | 399 kts | 243° |
| 2026-05-07 10:04 | 44.84258 | 9.70597 | 37000 ft | 399 kts | 243° |
| 2026-05-07 10:05 | 44.81720 | 9.63617 | 36997 ft | 399 kts | 243° |
| 2026-05-07 10:05 | 44.79181 | 9.56656 | 37004 ft | 399 kts | 243° |
| 2026-05-07 10:06 | 44.76648 | 9.49725 | 37002 ft | 400 kts | 243° |
| 2026-05-07 10:06 | 44.74094 | 9.42747 | 37010 ft | 400 kts | 243° |
| 2026-05-07 10:07 | 44.71536 | 9.35785 | 37008 ft | 400 kts | 243° |
| 2026-05-07 10:07 | 44.68983 | 9.28836 | 37006 ft | 400 kts | 243° |
| 2026-05-07 10:08 | 44.66439 | 9.21923 | 37005 ft | 400 kts | 243° |
| 2026-05-07 10:08 | 44.63872 | 9.14987 | 37014 ft | 399 kts | 243° |
| 2026-05-07 10:09 | 44.61299 | 9.08066 | 37014 ft | 399 kts | 243° |
| 2026-05-07 10:09 | 44.58728 | 9.01167 | 37016 ft | 398 kts | 243° |
| 2026-05-07 10:10 | 44.56178 | 8.94317 | 37023 ft | 398 kts | 243° |
| 2026-05-07 10:10 | 44.53604 | 8.87431 | 37030 ft | 397 kts | 243° |
| 2026-05-07 10:11 | 44.51033 | 8.80571 | 37028 ft | 397 kts | 243° |
| 2026-05-07 10:11 | 44.48455 | 8.73719 | 37027 ft | 397 kts | 243° |
| 2026-05-07 10:12 | 44.45879 | 8.66878 | 37022 ft | 396 kts | 243° |
| 2026-05-07 10:12 | 44.43317 | 8.60088 | 37027 ft | 396 kts | 243° |
| 2026-05-07 10:13 | 44.40731 | 8.53275 | 37024 ft | 395 kts | 243° |
| 2026-05-07 10:13 | 44.38784 | 8.46114 | 37019 ft | 395 kts | 256° |
| 2026-05-07 10:14 | 44.37537 | 8.38671 | 37018 ft | 394 kts | 256° |
| 2026-05-07 10:14 | 44.36267 | 8.31191 | 37396 ft | 395 kts | 256° |
| 2026-05-07 10:14 | 44.35627 | 8.27455 | 37716 ft | 395 kts | 255° |
| 2026-05-07 10:15 | 44.34981 | 8.23704 | 37965 ft | 396 kts | 255° |
| 2026-05-07 10:15 | 44.33692 | 8.16199 | 38011 ft | 397 kts | 255° |
| 2026-05-07 10:16 | 44.32404 | 8.08736 | 38008 ft | 397 kts | 255° |
| 2026-05-07 10:16 | 44.31105 | 8.01227 | 38007 ft | 397 kts | 255° |
| 2026-05-07 10:17 | 44.29803 | 7.93721 | 38007 ft | 397 kts | 256° |
| 2026-05-07 10:17 | 44.28499 | 7.86251 | 38341 ft | 399 kts | 255° |
| 2026-05-07 10:17 | 44.27777 | 7.82520 | 38636 ft | 399 kts | 250° |
| 2026-05-07 10:18 | 44.26652 | 7.78983 | 38857 ft | 399 kts | 240° |
| 2026-05-07 10:18 | 44.25077 | 7.75767 | 38980 ft | 402 kts | 231° |
| 2026-05-07 10:18 | 44.23089 | 7.73001 | 39012 ft | 404 kts | 224° |
| 2026-05-07 10:19 | 44.18882 | 7.67841 | 39009 ft | 404 kts | 224° |
| 2026-05-07 10:19 | 44.14699 | 7.62668 | 39002 ft | 403 kts | 227° |
| 2026-05-07 10:20 | 44.10979 | 7.56811 | 39002 ft | 401 kts | 231° |
| 2026-05-07 10:20 | 44.07320 | 7.50949 | 39003 ft | 400 kts | 231° |
| 2026-05-07 10:21 | 44.03660 | 7.45099 | 39001 ft | 401 kts | 231° |
| 2026-05-07 10:21 | 44.00004 | 7.39275 | 39009 ft | 401 kts | 231° |
| 2026-05-07 10:22 | 43.96327 | 7.33432 | 39011 ft | 401 kts | 231° |
| 2026-05-07 10:22 | 43.92711 | 7.27688 | 39011 ft | 401 kts | 231° |
| 2026-05-07 10:23 | 43.89039 | 7.21853 | 39014 ft | 400 kts | 231° |
| 2026-05-07 10:23 | 43.85386 | 7.16074 | 39015 ft | 400 kts | 230° |
| 2026-05-07 10:24 | 43.81730 | 7.10316 | 39014 ft | 399 kts | 230° |
| 2026-05-07 10:24 | 43.78048 | 7.04525 | 39016 ft | 400 kts | 230° |
| 2026-05-07 10:25 | 43.74358 | 6.98735 | 39013 ft | 400 kts | 230° |
| 2026-05-07 10:25 | 43.71331 | 6.92417 | 39010 ft | 397 kts | 247° |
| 2026-05-07 10:26 | 43.69266 | 6.85319 | 39013 ft | 397 kts | 248° |
| 2026-05-07 10:26 | 43.67203 | 6.78296 | 39012 ft | 397 kts | 248° |
| 2026-05-07 10:27 | 43.65110 | 6.71242 | 39015 ft | 397 kts | 247° |
| 2026-05-07 10:27 | 43.63014 | 6.64185 | 39008 ft | 397 kts | 247° |
| 2026-05-07 10:28 | 43.60927 | 6.57176 | 39005 ft | 397 kts | 247° |
| 2026-05-07 10:28 | 43.58823 | 6.50124 | 39006 ft | 397 kts | 247° |
| 2026-05-07 10:29 | 43.56717 | 6.43069 | 39012 ft | 397 kts | 247° |
| 2026-05-07 10:29 | 43.54623 | 6.36072 | 39013 ft | 397 kts | 247° |
| 2026-05-07 10:30 | 43.51451 | 6.25521 | 39015 ft | 397 kts | 247° |
| 2026-05-07 10:30 | 43.49686 | 6.19675 | 39014 ft | 397 kts | 247° |
| 2026-05-07 10:31 | 43.47218 | 6.11506 | 39013 ft | 397 kts | 247° |
| 2026-05-07 10:31 | 43.45443 | 6.05674 | 39010 ft | 397 kts | 246° |
| 2026-05-07 10:32 | 43.43308 | 5.98664 | 39009 ft | 396 kts | 246° |
| 2026-05-07 10:32 | 43.41176 | 5.91654 | 39007 ft | 397 kts | 246° |
| 2026-05-07 10:33 | 43.39053 | 5.84686 | 39009 ft | 396 kts | 246° |
| 2026-05-07 10:33 | 43.36901 | 5.77672 | 39005 ft | 396 kts | 246° |
| 2026-05-07 10:34 | 43.34749 | 5.70686 | 39010 ft | 396 kts | 246° |
| 2026-05-07 10:34 | 43.32610 | 5.63749 | 39009 ft | 396 kts | 246° |
| 2026-05-07 10:35 | 43.30459 | 5.56771 | 39012 ft | 396 kts | 246° |
| 2026-05-07 10:35 | 43.28296 | 5.49775 | 39014 ft | 397 kts | 246° |
| 2026-05-07 10:36 | 43.26144 | 5.42838 | 39019 ft | 397 kts | 246° |
| 2026-05-07 10:36 | 43.23968 | 5.35856 | 39020 ft | 397 kts | 246° |
| 2026-05-07 10:37 | 43.21798 | 5.28918 | 39021 ft | 397 kts | 246° |
| 2026-05-07 10:37 | 43.19610 | 5.21940 | 39021 ft | 397 kts | 246° |
| 2026-05-07 10:38 | 43.17427 | 5.14969 | 39024 ft | 397 kts | 246° |
| 2026-05-07 10:38 | 43.15246 | 5.08043 | 39027 ft | 398 kts | 246° |
| 2026-05-07 10:39 | 43.13046 | 5.01082 | 39021 ft | 398 kts | 246° |
| 2026-05-07 10:39 | 43.10848 | 4.94130 | 39036 ft | 398 kts | 246° |
| 2026-05-07 10:40 | 43.08645 | 4.87175 | 39028 ft | 398 kts | 245° |
| 2026-05-07 10:40 | 43.06388 | 4.80286 | 39028 ft | 398 kts | 240° |
| 2026-05-07 10:41 | 43.02927 | 4.74407 | 39031 ft | 399 kts | 223° |
| 2026-05-07 10:41 | 42.98755 | 4.69397 | 39029 ft | 399 kts | 223° |
| 2026-05-07 10:42 | 42.94613 | 4.64398 | 39033 ft | 399 kts | 223° |
| 2026-05-07 10:42 | 42.90443 | 4.59374 | 39034 ft | 399 kts | 223° |
| 2026-05-07 10:43 | 42.86271 | 4.54348 | 39033 ft | 400 kts | 223° |
| 2026-05-07 10:43 | 42.82121 | 4.49351 | 39041 ft | 400 kts | 223° |
| 2026-05-07 10:44 | 42.77931 | 4.44336 | 39032 ft | 400 kts | 223° |
| 2026-05-07 10:44 | 42.73741 | 4.39330 | 39046 ft | 400 kts | 223° |
| 2026-05-07 10:45 | 42.69552 | 4.34316 | 39041 ft | 400 kts | 223° |
| 2026-05-07 10:45 | 42.65387 | 4.29353 | 39044 ft | 400 kts | 223° |
| 2026-05-07 10:46 | 42.61189 | 4.24348 | 39045 ft | 400 kts | 223° |
| 2026-05-07 10:46 | 42.57027 | 4.19400 | 39045 ft | 400 kts | 223° |
| 2026-05-07 10:47 | 42.52829 | 4.14433 | 39047 ft | 399 kts | 223° |
| 2026-05-07 10:47 | 42.48635 | 4.09461 | 39049 ft | 399 kts | 223° |
| 2026-05-07 10:48 | 42.44464 | 4.04530 | 39046 ft | 399 kts | 223° |
| 2026-05-07 10:48 | 42.40268 | 3.99592 | 39045 ft | 399 kts | 223° |
| 2026-05-07 10:49 | 42.36076 | 3.94660 | 39045 ft | 399 kts | 223° |
| 2026-05-07 10:49 | 42.31903 | 3.89760 | 39045 ft | 398 kts | 223° |
| 2026-05-07 10:50 | 42.27710 | 3.84847 | 39048 ft | 398 kts | 223° |
| 2026-05-07 10:50 | 42.24128 | 3.79241 | 39050 ft | 396 kts | 235° |
| 2026-05-07 10:51 | 42.20939 | 3.73157 | 39053 ft | 396 kts | 234° |
| 2026-05-07 10:51 | 42.17736 | 3.67111 | 39051 ft | 396 kts | 234° |
| 2026-05-07 10:52 | 42.14543 | 3.61072 | 39052 ft | 396 kts | 235° |
| 2026-05-07 10:52 | 42.11347 | 3.55026 | 39052 ft | 396 kts | 234° |
| 2026-05-07 10:53 | 42.08156 | 3.49021 | 39049 ft | 396 kts | 234° |
| 2026-05-07 10:53 | 42.04947 | 3.42993 | 39049 ft | 396 kts | 234° |
| 2026-05-07 10:54 | 42.01737 | 3.36963 | 39049 ft | 396 kts | 234° |
| 2026-05-07 10:54 | 41.98543 | 3.30963 | 39045 ft | 396 kts | 234° |
| 2026-05-07 10:55 | 41.95322 | 3.24935 | 39043 ft | 396 kts | 234° |
| 2026-05-07 10:55 | 41.92122 | 3.18957 | 39040 ft | 396 kts | 234° |
| 2026-05-07 10:56 | 41.88902 | 3.12952 | 39035 ft | 396 kts | 234° |
| 2026-05-07 10:56 | 41.85663 | 3.06947 | 39030 ft | 396 kts | 234° |
| 2026-05-07 10:57 | 41.82425 | 3.00949 | 39025 ft | 396 kts | 234° |
| 2026-05-07 10:57 | 41.79213 | 2.94996 | 39025 ft | 396 kts | 234° |
| 2026-05-07 10:58 | 41.75972 | 2.88995 | 39027 ft | 397 kts | 234° |
| 2026-05-07 10:58 | 41.72727 | 2.83012 | 39024 ft | 397 kts | 234° |
| 2026-05-07 10:59 | 41.69498 | 2.77071 | 39028 ft | 397 kts | 234° |
| 2026-05-07 10:59 | 41.66198 | 2.71133 | 39028 ft | 397 kts | 233° |
| 2026-05-07 11:00 | 41.62780 | 2.65308 | 39034 ft | 397 kts | 232° |
| 2026-05-07 11:00 | 41.59371 | 2.59548 | 39036 ft | 397 kts | 232° |
| 2026-05-07 11:01 | 41.55959 | 2.53718 | 39042 ft | 397 kts | 233° |
| 2026-05-07 11:01 | 41.52556 | 2.47889 | 39041 ft | 397 kts | 233° |
| 2026-05-07 11:02 | 41.49171 | 2.42096 | 39044 ft | 397 kts | 233° |
| 2026-05-07 11:02 | 41.45762 | 2.36281 | 39044 ft | 397 kts | 232° |
| 2026-05-07 11:03 | 41.42345 | 2.30477 | 39047 ft | 397 kts | 232° |
| 2026-05-07 11:03 | 41.38948 | 2.24715 | 39046 ft | 397 kts | 232° |
| 2026-05-07 11:04 | 41.35530 | 2.18921 | 39046 ft | 397 kts | 233° |
| 2026-05-07 11:04 | 41.32185 | 2.13069 | 39043 ft | 397 kts | 239° |
| 2026-05-07 11:05 | 41.30187 | 2.06311 | 39042 ft | 398 kts | 258° |
| 2026-05-07 11:05 | 41.29360 | 1.99012 | 39045 ft | 399 kts | 259° |
| 2026-05-07 11:06 | 41.28531 | 1.91708 | 39043 ft | 399 kts | 259° |
| 2026-05-07 11:06 | 41.27684 | 1.84396 | 39042 ft | 399 kts | 259° |
| 2026-05-07 11:07 | 41.26832 | 1.77126 | 39039 ft | 399 kts | 259° |
| 2026-05-07 11:07 | 41.25972 | 1.69826 | 39034 ft | 399 kts | 259° |
| 2026-05-07 11:08 | 41.25114 | 1.62530 | 39034 ft | 399 kts | 259° |
| 2026-05-07 11:08 | 41.24253 | 1.55237 | 39035 ft | 399 kts | 259° |
| 2026-05-07 11:09 | 41.23395 | 1.47967 | 39038 ft | 399 kts | 259° |
| 2026-05-07 11:09 | 41.22669 | 1.41898 | 39039 ft | 399 kts | 259° |
| 2026-05-07 11:10 | 41.21788 | 1.34603 | 39041 ft | 399 kts | 259° |
| 2026-05-07 11:10 | 41.20908 | 1.27306 | 39046 ft | 399 kts | 259° |
| 2026-05-07 11:11 | 41.20036 | 1.20074 | 39046 ft | 399 kts | 259° |
| 2026-05-07 11:11 | 41.19144 | 1.12788 | 39043 ft | 399 kts | 259° |
| 2026-05-07 11:12 | 41.18253 | 1.05502 | 39046 ft | 399 kts | 259° |
| 2026-05-07 11:12 | 41.17351 | 0.98224 | 39043 ft | 399 kts | 259° |
| 2026-05-07 11:13 | 41.16450 | 0.90983 | 39035 ft | 399 kts | 258° |
| 2026-05-07 11:13 | 41.15540 | 0.83700 | 39036 ft | 399 kts | 258° |
| 2026-05-07 11:14 | 41.14624 | 0.76421 | 39027 ft | 399 kts | 258° |
| 2026-05-07 11:14 | 41.13705 | 0.69181 | 39017 ft | 400 kts | 258° |
| 2026-05-07 11:15 | 41.12783 | 0.61902 | 39012 ft | 400 kts | 258° |
| 2026-05-07 11:15 | 41.11859 | 0.54597 | 39009 ft | 400 kts | 258° |
| 2026-05-07 11:16 | 41.10940 | 0.47349 | 39008 ft | 401 kts | 258° |
| 2026-05-07 11:16 | 41.10006 | 0.40036 | 38999 ft | 401 kts | 258° |
| 2026-05-07 11:17 | 41.09070 | 0.32797 | 39004 ft | 401 kts | 258° |
| 2026-05-07 11:17 | 41.08113 | 0.25478 | 39003 ft | 401 kts | 258° |
| 2026-05-07 11:18 | 41.07154 | 0.18170 | 38993 ft | 402 kts | 258° |
| 2026-05-07 11:18 | 41.06191 | 0.10899 | 38996 ft | 402 kts | 258° |
| 2026-05-07 11:19 | 41.05224 | 0.03583 | 38991 ft | 403 kts | 258° |
| 2026-05-07 11:19 | 41.04256 | -0.03743 | 38990 ft | 403 kts | 258° |
| 2026-05-07 11:20 | 41.03277 | -0.11061 | 38989 ft | 403 kts | 258° |
| 2026-05-07 11:20 | 41.02292 | -0.18389 | 38979 ft | 404 kts | 258° |
| 2026-05-07 11:21 | 41.01313 | -0.25692 | 38980 ft | 404 kts | 258° |
| 2026-05-07 11:21 | 40.99769 | -0.32832 | 38981 ft | 403 kts | 249° |
| 2026-05-07 11:22 | 40.97888 | -0.39766 | 38978 ft | 403 kts | 249° |
| 2026-05-07 11:22 | 40.96140 | -0.46209 | 38973 ft | 404 kts | 249° |
| 2026-05-07 11:23 | 40.94338 | -0.52863 | 38974 ft | 404 kts | 249° |
| 2026-05-07 11:23 | 40.92530 | -0.59672 | 38978 ft | 404 kts | 249° |
| 2026-05-07 11:24 | 40.90610 | -0.66639 | 38943 ft | 405 kts | 248° |
| 2026-05-07 11:24 | 40.88658 | -0.73658 | 38920 ft | 409 kts | 248° |
| 2026-05-07 11:25 | 40.87666 | -0.77215 | 38694 ft | 412 kts | 248° |
| 2026-05-07 11:25 | 40.86678 | -0.80773 | 38438 ft | 412 kts | 248° |
| 2026-05-07 11:25 | 40.85695 | -0.84335 | 38152 ft | 412 kts | 247° |
| 2026-05-07 11:25 | 40.84715 | -0.87893 | 37816 ft | 412 kts | 247° |
| 2026-05-07 11:26 | 40.83731 | -0.91466 | 37225 ft | 412 kts | 247° |
| 2026-05-07 11:26 | 40.82745 | -0.95029 | 36600 ft | 413 kts | 247° |
| 2026-05-07 11:26 | 40.81756 | -0.98602 | 35881 ft | 416 kts | 246° |
| 2026-05-07 11:26 | 40.80761 | -1.02183 | 35421 ft | 412 kts | 246° |
| 2026-05-07 11:27 | 40.79778 | -1.05717 | 34964 ft | 409 kts | 246° |
| 2026-05-07 11:27 | 40.78799 | -1.09224 | 34501 ft | 405 kts | 246° |
| 2026-05-07 11:27 | 40.77843 | -1.12650 | 34105 ft | 401 kts | 245° |
| 2026-05-07 11:27 | 40.76881 | -1.16097 | 33597 ft | 397 kts | 245° |
| 2026-05-07 11:28 | 40.75933 | -1.19498 | 33167 ft | 392 kts | 245° |
| 2026-05-07 11:28 | 40.74991 | -1.22864 | 32709 ft | 388 kts | 245° |
| 2026-05-07 11:28 | 40.74057 | -1.26182 | 32211 ft | 384 kts | 245° |
| 2026-05-07 11:28 | 40.73133 | -1.29474 | 31744 ft | 381 kts | 245° |
| 2026-05-07 11:29 | 40.72216 | -1.32744 | 31288 ft | 377 kts | 245° |
| 2026-05-07 11:29 | 40.71319 | -1.35932 | 30836 ft | 374 kts | 245° |
| 2026-05-07 11:29 | 40.70414 | -1.39146 | 30396 ft | 371 kts | 245° |
| 2026-05-07 11:29 | 40.69521 | -1.42324 | 29945 ft | 369 kts | 245° |
| 2026-05-07 11:30 | 40.68632 | -1.45488 | 29494 ft | 365 kts | 245° |
| 2026-05-07 11:30 | 40.67754 | -1.48608 | 29073 ft | 361 kts | 245° |
| 2026-05-07 11:30 | 40.66879 | -1.51695 | 28669 ft | 357 kts | 245° |
| 2026-05-07 11:30 | 40.66011 | -1.54740 | 28285 ft | 354 kts | 245° |
| 2026-05-07 11:31 | 40.65146 | -1.57764 | 27886 ft | 350 kts | 245° |
| 2026-05-07 11:31 | 40.64293 | -1.60762 | 27496 ft | 347 kts | 246° |
| 2026-05-07 11:31 | 40.63460 | -1.63694 | 27113 ft | 344 kts | 246° |
| 2026-05-07 11:31 | 40.62625 | -1.66637 | 26729 ft | 341 kts | 246° |
| 2026-05-07 11:32 | 40.60966 | -1.72461 | 25954 ft | 336 kts | 246° |
| 2026-05-07 11:32 | 40.60147 | -1.75324 | 25561 ft | 333 kts | 246° |
| 2026-05-07 11:32 | 40.59336 | -1.78173 | 25168 ft | 331 kts | 246° |
| 2026-05-07 11:33 | 40.58530 | -1.81009 | 24768 ft | 329 kts | 246° |
| 2026-05-07 11:33 | 40.57735 | -1.83795 | 24367 ft | 328 kts | 246° |
| 2026-05-07 11:33 | 40.56926 | -1.86611 | 23962 ft | 328 kts | 246° |
| 2026-05-07 11:33 | 40.56119 | -1.89418 | 23540 ft | 328 kts | 247° |
| 2026-05-07 11:34 | 40.55311 | -1.92222 | 23074 ft | 327 kts | 246° |
| 2026-05-07 11:34 | 40.54509 | -1.95011 | 22660 ft | 325 kts | 246° |
| 2026-05-07 11:34 | 40.53712 | -1.97780 | 22255 ft | 322 kts | 246° |
| 2026-05-07 11:34 | 40.52925 | -2.00503 | 21858 ft | 321 kts | 246° |
| 2026-05-07 11:35 | 40.52133 | -2.03240 | 21430 ft | 319 kts | 246° |
| 2026-05-07 11:35 | 40.51331 | -2.05954 | 21024 ft | 317 kts | 243° |
| 2026-05-07 11:35 | 40.50264 | -2.08476 | 20663 ft | 317 kts | 236° |
| 2026-05-07 11:35 | 40.49091 | -2.10974 | 20304 ft | 323 kts | 236° |
| 2026-05-07 11:36 | 40.47913 | -2.13491 | 19959 ft | 323 kts | 236° |
| 2026-05-07 11:36 | 40.46736 | -2.16006 | 19603 ft | 323 kts | 236° |
| 2026-05-07 11:36 | 40.45564 | -2.18510 | 19244 ft | 321 kts | 236° |
| 2026-05-07 11:36 | 40.44393 | -2.21011 | 18894 ft | 320 kts | 236° |
| 2026-05-07 11:37 | 40.43226 | -2.23500 | 18545 ft | 319 kts | 236° |
| 2026-05-07 11:37 | 40.42064 | -2.25982 | 18189 ft | 318 kts | 236° |
| 2026-05-07 11:37 | 40.40910 | -2.28452 | 17815 ft | 317 kts | 236° |
| 2026-05-07 11:37 | 40.39757 | -2.30913 | 17458 ft | 315 kts | 236° |
| 2026-05-07 11:38 | 40.38611 | -2.33357 | 17107 ft | 314 kts | 236° |
| 2026-05-07 11:38 | 40.37471 | -2.35786 | 16772 ft | 312 kts | 236° |
| 2026-05-07 11:38 | 40.36335 | -2.38211 | 16426 ft | 310 kts | 236° |
| 2026-05-07 11:38 | 40.35207 | -2.40612 | 16088 ft | 308 kts | 236° |
| 2026-05-07 11:39 | 40.34082 | -2.42998 | 15758 ft | 307 kts | 236° |
| 2026-05-07 11:39 | 40.32959 | -2.45375 | 15411 ft | 305 kts | 236° |
| 2026-05-07 11:39 | 40.31856 | -2.47708 | 15081 ft | 304 kts | 236° |
| 2026-05-07 11:39 | 40.30741 | -2.50060 | 14951 ft | 302 kts | 236° |
| 2026-05-07 11:40 | 40.29629 | -2.52405 | 14954 ft | 303 kts | 236° |
| 2026-05-07 11:40 | 40.28519 | -2.54756 | 14638 ft | 300 kts | 236° |
| 2026-05-07 11:40 | 40.27450 | -2.57025 | 14519 ft | 284 kts | 236° |
| 2026-05-07 11:40 | 40.26510 | -2.59238 | 14363 ft | 273 kts | 246° |
| 2026-05-07 11:41 | 40.26054 | -2.61627 | 14020 ft | 271 kts | 262° |
| 2026-05-07 11:41 | 40.26026 | -2.64096 | 13614 ft | 270 kts | 266° |
| 2026-05-07 11:41 | 40.26026 | -2.66548 | 13244 ft | 266 kts | 266° |
| 2026-05-07 11:41 | 40.26021 | -2.68927 | 12964 ft | 263 kts | 266° |
| 2026-05-07 11:42 | 40.26010 | -2.71314 | 12706 ft | 261 kts | 266° |
| 2026-05-07 11:42 | 40.26000 | -2.73694 | 12487 ft | 261 kts | 266° |
| 2026-05-07 11:42 | 40.25991 | -2.76064 | 12242 ft | 260 kts | 267° |
| 2026-05-07 11:42 | 40.25981 | -2.78426 | 11985 ft | 258 kts | 266° |
| 2026-05-07 11:43 | 40.25975 | -2.80773 | 11733 ft | 257 kts | 266° |
| 2026-05-07 11:43 | 40.25972 | -2.83114 | 11478 ft | 256 kts | 267° |
| 2026-05-07 11:43 | 40.25968 | -2.85449 | 11222 ft | 255 kts | 266° |
| 2026-05-07 11:43 | 40.25961 | -2.87768 | 10971 ft | 254 kts | 266° |
| 2026-05-07 11:44 | 40.25951 | -2.90080 | 10715 ft | 254 kts | 266° |
| 2026-05-07 11:44 | 40.25942 | -2.92397 | 10459 ft | 253 kts | 266° |
| 2026-05-07 11:44 | 40.25933 | -2.94703 | 10203 ft | 252 kts | 266° |
| 2026-05-07 11:44 | 40.25922 | -2.96975 | 9955 ft | 252 kts | 266° |
| 2026-05-07 11:45 | 40.25912 | -2.99265 | 9694 ft | 251 kts | 267° |
| 2026-05-07 11:45 | 40.25902 | -3.01542 | 9436 ft | 249 kts | 266° |
| 2026-05-07 11:45 | 40.25888 | -3.03805 | 9185 ft | 248 kts | 266° |
| 2026-05-07 11:45 | 40.25873 | -3.06058 | 8937 ft | 247 kts | 266° |
| 2026-05-07 11:46 | 40.25858 | -3.08306 | 8688 ft | 246 kts | 266° |
| 2026-05-07 11:46 | 40.25847 | -3.09794 | 8530 ft | 246 kts | 266° |
| 2026-05-07 11:46 | 40.25833 | -3.12030 | 8283 ft | 245 kts | 266° |
| 2026-05-07 11:46 | 40.25905 | -3.14261 | 8038 ft | 247 kts | 276° |
| 2026-05-07 11:47 | 40.26203 | -3.16482 | 7791 ft | 246 kts | 277° |
| 2026-05-07 11:47 | 40.26498 | -3.18693 | 7537 ft | 246 kts | 277° |
| 2026-05-07 11:47 | 40.26792 | -3.20901 | 7305 ft | 245 kts | 277° |
| 2026-05-07 11:47 | 40.27081 | -3.23074 | 7067 ft | 245 kts | 277° |
| 2026-05-07 11:48 | 40.27371 | -3.25262 | 6859 ft | 241 kts | 277° |
| 2026-05-07 11:48 | 40.27653 | -3.27392 | 6736 ft | 233 kts | 277° |
| 2026-05-07 11:48 | 40.27924 | -3.29455 | 6614 ft | 226 kts | 277° |
| 2026-05-07 11:48 | 40.28218 | -3.31460 | 6397 ft | 224 kts | 284° |
| 2026-05-07 11:49 | 40.28862 | -3.33324 | 6136 ft | 226 kts | 301° |
| 2026-05-07 11:49 | 40.29843 | -3.34919 | 5877 ft | 227 kts | 308° |
| 2026-05-07 11:49 | 40.30864 | -3.36488 | 5619 ft | 226 kts | 308° |
| 2026-05-07 11:49 | 40.31889 | -3.38039 | 5373 ft | 225 kts | 314° |
| 2026-05-07 11:50 | 40.33126 | -3.39311 | 5129 ft | 227 kts | 323° |
| 2026-05-07 11:50 | 40.34384 | -3.40511 | 5022 ft | 219 kts | 322° |
| 2026-05-07 11:50 | 40.35583 | -3.41703 | 4825 ft | 212 kts | 322° |
| 2026-05-07 11:50 | 40.36730 | -3.42861 | 4547 ft | 205 kts | 321° |
| 2026-05-07 11:51 | 40.37837 | -3.43980 | 4274 ft | 196 kts | 321° |
| 2026-05-07 11:51 | 40.38875 | -3.45028 | 4031 ft | 180 kts | 321° |
| 2026-05-07 11:51 | 40.39839 | -3.46003 | 3811 ft | 169 kts | 321° |
| 2026-05-07 11:51 | 40.40731 | -3.46905 | 3582 ft | 156 kts | 322° |
| 2026-05-07 11:52 | 40.41579 | -3.47764 | 3382 ft | 152 kts | 321° |
| 2026-05-07 11:52 | 40.42403 | -3.48598 | 3140 ft | 148 kts | 322° |
| 2026-05-07 11:52 | 40.43212 | -3.49418 | 2944 ft | 145 kts | 322° |
| 2026-05-07 11:52 | 40.44005 | -3.50220 | 2767 ft | 142 kts | 322° |
| 2026-05-07 11:53 | 40.44782 | -3.51008 | 2572 ft | 140 kts | 322° |
| 2026-05-07 11:53 | 40.45545 | -3.51785 | 2399 ft | 138 kts | 322° |
| 2026-05-07 11:53 | 40.46306 | -3.52554 | 2212 ft | 138 kts | 322° |
| 2026-05-07 11:53 | 40.47064 | -3.53325 | 2038 ft | 138 kts | 322° |
| 2026-05-07 11:54 | 40.47775 | -3.54044 | 1981 ft | 115 kts | 322° |
| 2026-05-07 11:54 | 40.48315 | -3.54588 | 1980 ft | 85 kts | 322° |
| 2026-05-07 11:54 | 40.48745 | -3.55028 | 1980 ft | 72 kts | 322° |
| 2026-05-07 11:54 | 40.49006 | -3.55291 | 1980 ft | 26 kts | 322° |
| 2026-05-07 11:55 | 40.49139 | -3.55451 | 1981 ft | 24 kts | 308° |
| 2026-05-07 11:55 | 40.49220 | -3.55627 | 1980 ft | 17 kts | 293° |
| 2026-05-07 11:55 | 40.49270 | -3.55784 | 1983 ft | 20 kts | 292° |
| 2026-05-07 11:55 | 40.49300 | -3.55946 | 1980 ft | 16 kts | 270° |
| 2026-05-07 11:56 | 40.49297 | -3.56096 | 1982 ft | 13 kts | 257° |
| 2026-05-07 11:56 | 40.49218 | -3.56145 | 1980 ft | 15 kts | 180° |
| 2026-05-07 11:56 | 40.49102 | -3.56144 | 1982 ft | 18 kts | 180° |
| 2026-05-07 11:56 | 40.48965 | -3.56143 | 1980 ft | 21 kts | 180° |
| 2026-05-07 11:57 | 40.48826 | -3.56143 | 1980 ft | 16 kts | 180° |
| 2026-05-07 11:57 | 40.48771 | -3.56193 | 1983 ft | 11 kts | 252° |
| 2026-05-07 11:57 | 40.48769 | -3.56309 | 1981 ft | 14 kts | 270° |
| 2026-05-07 11:57 | 40.48768 | -3.56453 | 1981 ft | 17 kts | 269° |
| 2026-05-07 11:58 | 40.48768 | -3.56624 | 1982 ft | 20 kts | 270° |
| 2026-05-07 11:58 | 40.48767 | -3.56824 | 1983 ft | 23 kts | 270° |
| 2026-05-07 11:58 | 40.48767 | -3.57034 | 1981 ft | 24 kts | 270° |
| 2026-05-07 11:58 | 40.48766 | -3.57242 | 1984 ft | 23 kts | 270° |
| 2026-05-07 11:59 | 40.48765 | -3.57461 | 1982 ft | 24 kts | 270° |
| 2026-05-07 11:59 | 40.48764 | -3.57680 | 1981 ft | 25 kts | 270° |
| 2026-05-07 11:59 | 40.48764 | -3.57875 | 1981 ft | 13 kts | 268° |
| 2026-05-07 11:59 | 40.48701 | -3.57935 | 1981 ft | 14 kts | 181° |
| 2026-05-07 12:00 | 40.48597 | -3.57925 | 1981 ft | 16 kts | 165° |
| 2026-05-07 12:00 | 40.48491 | -3.57854 | 1982 ft | 18 kts | 150° |
| 2026-05-07 12:00 | 40.48381 | -3.57764 | 1981 ft | 19 kts | 143° |
| 2026-05-07 12:00 | 40.48269 | -3.57651 | 1982 ft | 21 kts | 143° |
| 2026-05-07 12:01 | 40.48152 | -3.57532 | 1981 ft | 22 kts | 142° |
| 2026-05-07 12:01 | 40.48036 | -3.57414 | 1981 ft | 22 kts | 142° |
| 2026-05-07 12:01 | 40.47914 | -3.57289 | 1982 ft | 23 kts | 142° |
| 2026-05-07 12:01 | 40.47797 | -3.57172 | 1981 ft | 18 kts | 142° |
| 2026-05-07 12:02 | 40.47711 | -3.57085 | 1982 ft | 15 kts | 142° |
| 2026-05-07 12:02 | 40.47626 | -3.56998 | 1985 ft | 16 kts | 142° |
| 2026-05-07 12:02 | 40.47533 | -3.56903 | 1981 ft | 18 kts | 141° |
| 2026-05-07 12:02 | 40.47436 | -3.56804 | 1981 ft | 14 kts | 142° |
| 2026-05-07 12:03 | 40.47360 | -3.56811 | 1981 ft | 12 kts | 227° |
| 2026-05-07 12:03 | 40.47300 | -3.56901 | 1981 ft | 14 kts | 222° |
| 2026-05-07 12:03 | 40.47206 | -3.56927 | 1981 ft | 15 kts | 171° |
| 2026-05-07 12:03 | 40.47121 | -3.56860 | 1981 ft | 15 kts | 138° |
| 2026-05-07 12:04 | 40.47042 | -3.56765 | 1982 ft | 16 kts | 140° |
| 2026-05-07 12:04 | 40.47023 | -3.56744 | 1984 ft | 1 kts | 140° |
| 2026-05-07 12:04 | 40.47011 | -3.56731 | 1981 ft | 4 kts | 140° |
| 2026-05-07 12:04 | 40.46985 | -3.56720 | 1981 ft | 4 kts | 198° |
| 2026-05-07 12:05 | 40.46967 | -3.56762 | 1984 ft | 6 kts | 244° |
| 2026-05-07 12:05 | 40.46949 | -3.56815 | 1982 ft | 3 kts | 245° |
| 2026-05-07 12:05 | 40.46947 | -3.56820 | 1982 ft | 0 kts | 245° |